Time;durP1;ratioP1;P1;durP2;ratioP2;P2;SDS_P1;SDS_P2;PMS_P1;PMS_P2;Temp;Humidity;BMP_temperature;BMP_pressure;BME280_temperature;BME280_humidity;BME280_pressure;Samples;Min_cycle;Max_cycle;Signal;HPM_P1;HPM_P2
2022/05/06 00:01:39;;;;;;;18.65;11.45;;;11.80;99.90;;;;;;5033039;28;20377;-76
2022/05/06 00:04:05;;;;;;;24.90;11.60;;;11.80;99.90;;;;;;5035923;28;20029;-76
2022/05/06 00:06:32;;;;;;;30.33;12.30;;;11.70;99.90;;;;;;5042509;28;20026;-76
2022/05/06 00:08:57;;;;;;;25.15;12.55;;;11.70;99.90;;;;;;5045709;28;20067;-79
2022/05/06 00:11:24;;;;;;;23.83;12.65;;;11.70;99.90;;;;;;5050536;28;20037;-76
2022/05/06 00:13:52;;;;;;;21.80;12.48;;;11.60;99.90;;;;;;5043800;28;20021;-77
2022/05/06 00:16:19;;;;;;;23.38;11.80;;;11.60;99.90;;;;;;5037584;28;20032;-77
2022/05/06 00:18:44;;;;;;;26.52;13.18;;;11.70;99.90;;;;;;5043101;28;20089;-77
2022/05/06 00:21:10;;;;;;;26.50;13.25;;;11.60;99.90;;;;;;5041120;28;20076;-75
2022/05/06 00:23:35;;;;;;;25.52;12.85;;;11.50;99.90;;;;;;5041955;28;20026;-76
2022/05/06 00:26:03;;;;;;;25.00;12.98;;;11.50;99.90;;;;;;5037688;28;20108;-74
2022/05/06 00:28:28;;;;;;;22.40;12.77;;;11.50;99.90;;;;;;5033156;28;20024;-76
2022/05/06 00:30:54;;;;;;;24.48;13.02;;;11.40;99.90;;;;;;5032635;28;20397;-76
2022/05/06 00:33:24;;;;;;;31.77;14.63;;;11.40;99.90;;;;;;5032780;28;20390;-76
2022/05/06 00:35:52;;;;;;;25.90;14.27;;;11.40;99.90;;;;;;5032628;28;20079;-76
2022/05/06 00:38:17;;;;;;;30.55;14.57;;;11.40;99.90;;;;;;5038654;28;20073;-77
2022/05/06 00:40:43;;;;;;;27.42;14.45;;;11.40;99.90;;;;;;5032548;28;20033;-76
2022/05/06 00:43:08;;;;;;;25.77;14.55;;;11.30;99.90;;;;;;5032350;28;20037;-76
2022/05/06 00:45:52;;;;;;;26.70;15.00;;;11.30;99.90;;;;;;5032530;28;20386;-76
2022/05/06 00:48:26;;;;;;;22.58;13.57;;;11.30;99.90;;;;;;5032758;28;20056;-77
2022/05/06 00:50:53;;;;;;;24.83;13.77;;;11.20;99.90;;;;;;5037014;28;20044;-76
2022/05/06 00:53:19;;;;;;;32.13;14.55;;;11.20;99.90;;;;;;5036297;28;20084;-78
2022/05/06 00:55:44;;;;;;;27.10;14.60;;;11.20;99.90;;;;;;5038964;28;20026;-79
2022/05/06 00:58:10;;;;;;;33.95;15.77;;;11.20;99.90;;;;;;5042001;28;20044;-78
2022/05/06 01:00:36;;;;;;;27.95;14.45;;;11.20;99.90;;;;;;5042985;28;20030;-77
2022/05/06 01:03:02;;;;;;;27.00;14.00;;;11.10;99.90;;;;;;5042690;28;20449;-77
2022/05/06 01:05:28;;;;;;;30.13;15.02;;;11.10;99.90;;;;;;5040779;28;20032;-76
2022/05/06 01:07:54;;;;;;;24.63;14.70;;;11.00;99.90;;;;;;5039006;28;20022;-77
2022/05/06 01:10:21;;;;;;;33.38;15.23;;;11.00;99.90;;;;;;5039626;28;20022;-77
2022/05/06 01:12:47;;;;;;;31.58;15.00;;;11.00;99.90;;;;;;5037672;28;20026;-77
2022/05/06 01:15:27;;;;;;;25.13;13.82;;;10.90;99.90;;;;;;5035564;28;20037;-76
2022/05/06 01:17:55;;;;;;;28.95;15.13;;;11.00;99.90;;;;;;5034604;28;20461;-78
2022/05/06 01:20:21;;;;;;;24.98;14.95;;;11.00;99.90;;;;;;5035536;28;20436;-77
2022/05/06 01:22:52;;;;;;;28.55;14.57;;;10.90;99.90;;;;;;5034481;28;20117;-78
2022/05/06 01:25:18;;;;;;;27.15;14.48;;;10.90;99.90;;;;;;5037125;28;20093;-77
2022/05/06 01:28:03;;;;;;;29.40;15.93;;;10.90;99.90;;;;;;5036446;28;20021;-77
2022/05/06 01:30:36;;;;;;;27.98;15.25;;;10.80;99.90;;;;;;5036129;28;20100;-77
2022/05/06 01:33:04;;;;;;;34.38;15.15;;;10.80;99.90;;;;;;5035234;28;20025;-77
2022/05/06 01:35:31;;;;;;;28.58;15.57;;;10.80;99.90;;;;;;5035285;28;20053;-76
2022/05/06 01:38:01;;;;;;;29.80;15.00;;;10.80;99.90;;;;;;5034606;28;20026;-75
2022/05/06 01:40:29;;;;;;;30.45;15.20;;;10.70;99.90;;;;;;5035337;28;20030;-78
2022/05/06 01:42:59;;;;;;;35.22;15.40;;;10.80;99.90;;;;;;5035227;28;20018;-77
2022/05/06 01:45:28;;;;;;;29.50;16.27;;;10.80;99.90;;;;;;5035092;28;20021;-75
2022/05/06 01:47:55;;;;;;;31.27;16.40;;;10.70;99.90;;;;;;5033956;28;20076;-77
2022/05/06 01:50:22;;;;;;;27.77;15.40;;;10.70;99.90;;;;;;5035196;28;20029;-76
2022/05/06 01:52:51;;;;;;;27.00;15.93;;;10.70;99.90;;;;;;5035173;28;20018;-76
2022/05/06 01:55:17;;;;;;;27.45;15.85;;;10.60;99.90;;;;;;5034921;28;20041;-77
2022/05/06 01:57:44;;;;;;;30.52;15.65;;;10.60;99.90;;;;;;5033848;28;20166;-76
2022/05/06 02:00:12;;;;;;;29.33;15.52;;;10.60;99.90;;;;;;5033941;28;20018;-76
2022/05/06 02:02:37;;;;;;;29.83;16.75;;;10.60;99.90;;;;;;5034919;28;20032;-77
2022/05/06 02:05:19;;;;;;;30.80;16.48;;;10.50;99.90;;;;;;5034750;28;20085;-77
2022/05/06 02:07:48;;;;;;;34.22;17.50;;;10.50;99.90;;;;;;5034908;28;20386;-77
2022/05/06 02:10:16;;;;;;;27.67;17.15;;;10.50;99.90;;;;;;5034694;28;20032;-77
2022/05/06 02:12:41;;;;;;;36.17;17.60;;;10.50;99.90;;;;;;5034611;28;20022;-77
2022/05/06 02:15:08;;;;;;;29.65;16.38;;;10.50;99.90;;;;;;5034625;28;20096;-76
2022/05/06 02:17:33;;;;;;;30.60;16.80;;;10.40;99.90;;;;;;5033167;28;20036;-75
2022/05/06 02:19:59;;;;;;;32.95;17.88;;;10.40;99.90;;;;;;5034321;28;20025;-77
2022/05/06 02:22:27;;;;;;;26.77;15.85;;;10.40;99.90;;;;;;5035321;28;20033;-77
2022/05/06 02:24:55;;;;;;;28.58;16.02;;;10.40;99.90;;;;;;5035227;28;20060;-78
2022/05/06 02:27:20;;;;;;;28.38;15.75;;;10.40;99.90;;;;;;5034780;28;20049;-78
2022/05/06 02:35:15;;;;;;;27.42;14.43;;;10.20;99.90;;;;;;5034095;28;20043;-77
2022/05/06 02:37:40;;;;;;;28.83;14.93;;;10.20;99.90;;;;;;5034676;28;20104;-77
2022/05/06 02:40:10;;;;;;;29.10;14.95;;;10.30;99.90;;;;;;5034978;28;20041;-76
2022/05/06 02:42:36;;;;;;;26.52;14.80;;;10.20;99.90;;;;;;5035615;28;20478;-78
2022/05/06 02:45:03;;;;;;;30.25;15.77;;;10.20;99.90;;;;;;5034181;28;20072;-79
2022/05/06 02:47:31;;;;;;;27.33;14.98;;;10.20;99.90;;;;;;5034631;28;20028;-78
2022/05/06 02:49:57;;;;;;;33.67;16.30;;;10.20;99.90;;;;;;5033681;28;20028;-77
2022/05/06 02:52:23;;;;;;;34.15;15.73;;;10.20;99.90;;;;;;5045817;28;20081;-77
2022/05/06 02:54:49;;;;;;;28.55;15.93;;;10.20;99.90;;;;;;5044691;28;20072;-77
2022/05/06 02:57:14;;;;;;;31.60;17.17;;;10.20;99.90;;;;;;5040224;28;20060;-76
2022/05/06 02:59:40;;;;;;;27.55;16.45;;;10.20;99.90;;;;;;5035248;28;20036;-77
2022/05/06 03:02:06;;;;;;;27.48;16.42;;;10.10;99.90;;;;;;5033903;28;20032;-76
2022/05/06 03:04:32;;;;;;;31.73;17.50;;;10.10;99.90;;;;;;5032631;28;20017;-77
2022/05/06 03:06:58;;;;;;;35.90;17.70;;;10.10;99.90;;;;;;5033083;28;20025;-77
2022/05/06 03:09:24;;;;;;;30.83;16.92;;;10.00;99.90;;;;;;5033758;28;20099;-75
2022/05/06 03:11:50;;;;;;;30.65;17.15;;;10.00;99.90;;;;;;5036020;28;20025;-77
2022/05/06 03:14:15;;;;;;;32.90;16.52;;;9.90;99.90;;;;;;5043773;28;20077;-77
2022/05/06 03:16:41;;;;;;;30.15;17.10;;;9.90;99.90;;;;;;5043826;28;20059;-76
2022/05/06 03:19:06;;;;;;;28.90;15.43;;;9.90;99.90;;;;;;5042689;28;20025;-77
2022/05/06 03:21:32;;;;;;;29.08;15.63;;;9.80;99.90;;;;;;5040260;28;20037;-77
2022/05/06 03:23:59;;;;;;;26.55;14.60;;;9.80;99.90;;;;;;5038067;28;20048;-76
2022/05/06 03:26:25;;;;;;;33.78;17.45;;;9.80;99.90;;;;;;5034218;28;20022;-76
2022/05/06 03:28:52;;;;;;;30.20;15.52;;;9.70;99.90;;;;;;5035125;28;20021;-77
2022/05/06 03:31:18;;;;;;;25.75;14.73;;;9.70;99.90;;;;;;5038096;28;20053;-78
2022/05/06 03:33:44;;;;;;;27.25;14.93;;;9.70;99.90;;;;;;5040278;28;20029;-76
2022/05/06 03:36:10;;;;;;;24.88;15.55;;;9.70;99.90;;;;;;5042299;28;20025;-76
2022/05/06 03:38:35;;;;;;;30.25;15.13;;;9.60;99.90;;;;;;5042460;28;20067;-76
2022/05/06 03:41:01;;;;;;;27.08;14.00;;;9.60;99.90;;;;;;5041141;28;20029;-76
2022/05/06 03:43:29;;;;;;;21.30;13.18;;;9.60;99.90;;;;;;5035736;28;20022;-76
2022/05/06 03:45:55;;;;;;;24.23;12.55;;;9.50;99.90;;;;;;5035601;28;20017;-77
2022/05/06 03:48:24;;;;;;;28.33;12.48;;;9.50;99.90;;;;;;5034536;28;20029;-75
2022/05/06 03:53:38;;;;;;;24.27;11.90;;;9.40;99.90;;;;;;5056942;23;20151;-74
2022/05/06 03:56:04;;;;;;;25.85;14.07;;;9.40;99.90;;;;;;5033294;28;20061;-74
2022/05/06 03:58:30;;;;;;;25.90;12.52;;;9.30;99.90;;;;;;5033343;28;20343;-73
2022/05/06 04:00:56;;;;;;;23.48;13.07;;;9.30;99.90;;;;;;5032825;28;20062;-74
2022/05/06 04:03:21;;;;;;;28.67;16.52;;;9.30;99.90;;;;;;5032451;28;20057;-75
2022/05/06 04:05:47;;;;;;;36.55;17.88;;;9.30;99.90;;;;;;5035444;28;20474;-73
2022/05/06 04:08:13;;;;;;;36.72;18.88;;;9.30;99.90;;;;;;5035103;28;20055;-72
2022/05/06 04:10:38;;;;;;;36.22;17.52;;;9.30;99.90;;;;;;5036964;28;20036;-73
2022/05/06 04:13:04;;;;;;;38.00;19.40;;;9.30;99.90;;;;;;5038540;28;20390;-74
2022/05/06 04:15:32;;;;;;;34.88;18.63;;;9.20;99.90;;;;;;5034594;28;20030;-74
2022/05/06 04:17:58;;;;;;;37.60;18.05;;;9.30;99.90;;;;;;5032960;28;20486;-75
2022/05/06 04:25:52;;;;;;;36.53;19.95;;;9.30;99.90;;;;;;5032263;28;20036;-74
2022/05/06 04:28:17;;;;;;;38.65;20.30;;;9.30;99.90;;;;;;5032578;28;20021;-75
2022/05/06 04:30:43;;;;;;;40.67;22.77;;;9.30;99.90;;;;;;5032524;28;20040;-75
2022/05/06 04:33:08;;;;;;;37.58;23.33;;;9.30;99.90;;;;;;5031349;28;20025;-73
2022/05/06 04:35:34;;;;;;;40.00;23.52;;;9.20;99.90;;;;;;5032465;28;20055;-74
2022/05/06 04:38:00;;;;;;;44.55;25.67;;;9.30;99.90;;;;;;5034127;28;20021;-76
2022/05/06 04:40:26;;;;;;;44.42;25.17;;;9.30;99.90;;;;;;5033882;28;20072;-72
2022/05/06 04:42:51;;;;;;;56.38;26.13;;;9.30;99.90;;;;;;5032730;28;20374;-74
2022/05/06 04:45:17;;;;;;;40.83;24.92;;;9.30;99.90;;;;;;5032300;28;20021;-74
2022/05/06 04:47:42;;;;;;;45.88;25.73;;;9.10;99.90;;;;;;5033083;28;20394;-74
2022/05/06 04:50:08;;;;;;;45.88;24.42;;;9.20;99.90;;;;;;5035436;28;20024;-76
2022/05/06 04:52:34;;;;;;;40.38;24.73;;;9.10;99.90;;;;;;5036105;28;20471;-74
2022/05/06 04:54:59;;;;;;;41.50;25.17;;;9.10;99.90;;;;;;5030967;28;20033;-76
2022/05/06 04:57:25;;;;;;;46.13;25.60;;;9.10;99.90;;;;;;5032467;28;20281;-74
2022/05/06 04:59:50;;;;;;;47.47;27.08;;;9.10;99.90;;;;;;5032779;28;20032;-75
2022/05/06 05:02:17;;;;;;;43.88;24.42;;;9.10;99.90;;;;;;5036592;28;20129;-75
2022/05/06 05:04:44;;;;;;;42.17;24.65;;;9.20;99.90;;;;;;5038056;28;20030;-75
2022/05/06 05:07:10;;;;;;;40.10;24.35;;;9.20;99.90;;;;;;5036145;28;20013;-74
2022/05/06 05:09:35;;;;;;;45.03;25.90;;;9.30;99.90;;;;;;5035884;28;20124;-75
2022/05/06 05:12:01;;;;;;;42.35;24.60;;;9.30;99.90;;;;;;5033497;28;20030;-75
2022/05/06 05:14:26;;;;;;;44.90;24.67;;;9.30;99.90;;;;;;5033379;28;20060;-73
2022/05/06 05:16:52;;;;;;;41.17;24.83;;;9.30;99.90;;;;;;5035966;28;20078;-74
2022/05/06 05:19:17;;;;;;;39.45;23.17;;;9.40;99.90;;;;;;5032962;28;20029;-79
2022/05/06 05:21:43;;;;;;;42.88;25.00;;;9.40;99.90;;;;;;5031524;28;20087;-71
2022/05/06 05:24:09;;;;;;;39.50;23.55;;;9.50;99.90;;;;;;5033236;28;20052;-72
2022/05/06 05:26:34;;;;;;;41.25;23.88;;;9.50;99.90;;;;;;5033728;28;20052;-73
2022/05/06 05:29:00;;;;;;;40.80;25.30;;;9.60;99.90;;;;;;5033926;28;20026;-73
2022/05/06 05:31:26;;;;;;;40.00;23.38;;;9.70;99.90;;;;;;5035780;28;20025;-74
2022/05/06 05:33:52;;;;;;;37.92;23.35;;;9.80;99.90;;;;;;5039096;28;20028;-73
2022/05/06 05:36:18;;;;;;;51.80;24.10;;;9.90;99.90;;;;;;5039990;28;20026;-73
2022/05/06 05:38:44;;;;;;;42.33;23.77;;;10.00;99.90;;;;;;5042623;28;20021;-74
2022/05/06 05:41:09;;;;;;;72.40;25.33;;;10.00;99.90;;;;;;5036973;28;20037;-75
2022/05/06 05:49:03;;;;;;;53.47;24.98;;;10.30;99.90;;;;;;5035816;28;20129;-75
2022/05/06 05:51:29;;;;;;;53.13;26.02;;;10.30;99.90;;;;;;5035409;28;20061;-75
2022/05/06 05:53:55;;;;;;;52.00;27.90;;;10.40;99.90;;;;;;5035411;28;20037;-74
2022/05/06 05:56:20;;;;;;;58.22;25.75;;;10.40;99.90;;;;;;5035309;28;20474;-75
2022/05/06 05:58:46;;;;;;;71.35;26.83;;;10.50;99.90;;;;;;5035222;28;20033;-74
2022/05/06 06:01:11;;;;;;;46.45;25.50;;;10.60;99.90;;;;;;5034890;28;20116;-76
2022/05/06 06:03:37;;;;;;;42.13;24.73;;;10.60;99.90;;;;;;5035548;28;20104;-75
2022/05/06 06:06:03;;;;;;;37.40;23.60;;;10.70;99.90;;;;;;5036962;28;20033;-76
2022/05/06 06:08:29;;;;;;;39.33;24.00;;;10.80;99.90;;;;;;5038394;28;20025;-74
2022/05/06 06:10:54;;;;;;;41.70;25.08;;;10.90;99.90;;;;;;5034825;28;20128;-76
2022/05/06 06:13:21;;;;;;;39.80;25.02;;;11.00;99.90;;;;;;5037522;28;20044;-77
2022/05/06 06:15:47;;;;;;;36.50;23.17;;;11.00;99.90;;;;;;5035159;28;20128;-74
2022/05/06 06:18:15;;;;;;;34.42;22.40;;;11.10;99.90;;;;;;5038017;28;20510;-75
2022/05/06 06:20:41;;;;;;;44.53;22.90;;;11.10;99.90;;;;;;5053119;28;20029;-74
2022/05/06 06:23:06;;;;;;;41.60;23.50;;;11.20;99.90;;;;;;5055590;28;20030;-75
2022/05/06 06:25:32;;;;;;;40.67;23.23;;;11.20;99.90;;;;;;5040517;28;20025;-74
2022/05/06 06:27:58;;;;;;;35.25;22.38;;;11.20;99.90;;;;;;5039055;28;20026;-74
2022/05/06 06:30:23;;;;;;;35.95;22.05;;;11.30;99.90;;;;;;5035650;28;20509;-75
2022/05/06 06:32:50;;;;;;;38.50;22.90;;;11.40;99.90;;;;;;5036275;28;20522;-75
2022/05/06 06:35:16;;;;;;;39.15;24.05;;;11.50;99.90;;;;;;5034874;28;20033;-78
2022/05/06 06:37:42;;;;;;;37.95;24.45;;;11.60;99.90;;;;;;5035276;28;20441;-74
2022/05/06 06:40:08;;;;;;;44.13;25.58;;;11.70;99.90;;;;;;5034977;28;20052;-75
2022/05/06 06:42:34;;;;;;;43.08;25.80;;;11.80;99.90;;;;;;5035397;28;20064;-75
2022/05/06 06:44:59;;;;;;;41.22;25.50;;;11.90;99.90;;;;;;5034082;28;20366;-75
2022/05/06 06:47:25;;;;;;;42.58;26.30;;;12.00;99.90;;;;;;5034845;28;20022;-74
2022/05/06 06:49:50;;;;;;;41.38;24.55;;;12.00;99.90;;;;;;5033930;28;20410;-75
2022/05/06 06:52:16;;;;;;;41.35;25.60;;;12.10;99.90;;;;;;5036937;28;20038;-76
2022/05/06 06:54:41;;;;;;;47.67;26.52;;;12.20;99.90;;;;;;5036011;28;20053;-74
2022/05/06 06:57:07;;;;;;;47.60;27.23;;;12.20;99.90;;;;;;5041087;28;20025;-74
2022/05/06 06:59:32;;;;;;;48.28;27.85;;;12.20;99.90;;;;;;5037103;28;20038;-74
2022/05/06 07:01:58;;;;;;;49.08;27.48;;;12.20;99.90;;;;;;5037293;28;20037;-74
2022/05/06 07:04:23;;;;;;;45.20;27.48;;;12.20;99.90;;;;;;5055943;28;20057;-75
2022/05/06 07:12:18;;;;;;;75.30;35.40;;;12.50;99.90;;;;;;5057517;28;20048;-74
2022/05/06 07:14:43;;;;;;;85.13;39.45;;;12.70;99.90;;;;;;5054310;28;20025;-76
2022/05/06 07:17:09;;;;;;;87.63;41.80;;;12.80;99.90;;;;;;5053102;28;20060;-76
2022/05/06 07:19:35;;;;;;;87.63;39.55;;;13.00;99.90;;;;;;5055689;28;20021;-75
2022/05/06 07:22:01;;;;;;;95.68;43.10;;;13.00;99.90;;;;;;5054407;28;20033;-74
2022/05/06 07:24:26;;;;;;;68.55;36.15;;;13.20;99.90;;;;;;5048752;28;20037;-75
2022/05/06 07:26:53;;;;;;;83.78;40.40;;;13.30;99.90;;;;;;5035536;28;20025;-76
2022/05/06 07:29:19;;;;;;;72.32;35.90;;;13.40;99.90;;;;;;5034345;28;20036;-74
2022/05/06 07:31:45;;;;;;;129.93;57.15;;;13.40;99.90;;;;;;5035072;28;20033;-76
2022/05/06 07:34:11;;;;;;;122.63;56.47;;;13.40;99.90;;;;;;5034022;28;20509;-74
2022/05/06 07:36:42;;;;;;;109.82;51.08;;;13.50;99.90;;;;;;5035831;28;20163;-75
2022/05/06 07:39:15;;;;;;;162.55;63.80;;;13.70;99.90;;;;;;5033964;28;20080;-74
2022/05/06 07:41:41;;;;;;;160.82;67.97;;;13.90;99.90;;;;;;5035716;28;20037;-75
2022/05/06 07:44:07;;;;;;;117.85;51.63;;;14.10;99.90;;;;;;5040536;28;20033;-75
2022/05/06 07:46:35;;;;;;;97.68;44.78;;;14.30;99.90;;;;;;5039767;28;20089;-74
2022/05/06 07:49:02;;;;;;;78.93;38.17;;;14.40;99.90;;;;;;5039255;28;20113;-75
2022/05/06 07:51:28;;;;;;;131.57;55.65;;;14.50;99.90;;;;;;5038885;28;20028;-76
2022/05/06 07:53:55;;;;;;;72.15;35.20;;;14.60;99.90;;;;;;5038290;28;20041;-75
2022/05/06 07:56:24;;;;;;;70.60;34.42;;;14.70;99.90;;;;;;5033795;28;20450;-75
2022/05/06 07:58:51;;;;;;;64.00;33.83;;;14.80;99.90;;;;;;5033267;28;20025;-75
2022/05/06 08:01:17;;;;;;;56.88;30.23;;;14.80;99.90;;;;;;5033832;28;20021;-74
2022/05/06 08:06:27;;;;;;;67.40;31.53;;;15.10;99.90;;;;;;5035028;28;20036;-75
2022/05/06 08:08:52;;;;;;;57.72;31.25;;;15.30;99.90;;;;;;5034154;28;20026;-73
2022/05/06 08:11:18;;;;;;;57.90;31.00;;;15.40;99.90;;;;;;5032668;28;20119;-74
2022/05/06 08:13:49;;;;;;;58.65;29.33;;;15.50;99.90;;;;;;5034482;28;20100;-74
2022/05/06 08:16:14;;;;;;;48.13;27.60;;;15.70;99.90;;;;;;5035676;28;20021;-75
2022/05/06 08:18:40;;;;;;;45.22;25.40;;;15.80;99.90;;;;;;5036276;28;20048;-76
2022/05/06 08:21:05;;;;;;;48.65;26.58;;;15.90;99.90;;;;;;5038004;28;20025;-74
2022/05/06 08:23:31;;;;;;;43.15;24.27;;;16.00;99.90;;;;;;5046178;28;20041;-74
2022/05/06 08:25:56;;;;;;;36.58;22.17;;;16.20;99.90;;;;;;5056074;28;20028;-75
2022/05/06 08:28:22;;;;;;;55.13;23.33;;;16.20;99.90;;;;;;5055723;28;20218;-74
2022/05/06 08:30:49;;;;;;;44.08;22.83;;;16.40;99.90;;;;;;5051440;28;20085;-75
2022/05/06 08:33:15;;;;;;;47.22;22.50;;;16.50;99.90;;;;;;5035470;28;20029;-74
2022/05/06 08:35:41;;;;;;;42.05;22.98;;;16.50;99.90;;;;;;5038693;28;20474;-74
2022/05/06 08:38:08;;;;;;;41.13;22.70;;;16.60;99.90;;;;;;5033502;28;20057;-74
2022/05/06 08:40:35;;;;;;;42.63;23.02;;;16.40;99.90;;;;;;5033643;28;20021;-75
2022/05/06 08:43:02;;;;;;;47.53;22.85;;;16.50;99.90;;;;;;5033625;28;20017;-74
2022/05/06 08:51:00;;;;;;;45.95;19.50;;;17.00;99.90;;;;;;5035758;28;20437;-74
2022/05/06 08:53:29;;;;;;;38.55;20.17;;;17.20;99.90;;;;;;5034126;28;20022;-74
2022/05/06 08:55:56;;;;;;;42.03;18.45;;;17.50;99.90;;;;;;5032788;28;20029;-74
2022/05/06 08:58:23;;;;;;;33.38;18.02;;;17.70;99.90;;;;;;5031293;28;20390;-74
2022/05/06 09:00:50;;;;;;;29.27;16.85;;;17.80;99.90;;;;;;5032360;28;20022;-73
2022/05/06 09:03:17;;;;;;;27.13;16.45;;;18.00;99.90;;;;;;5032770;28;20022;-75
2022/05/06 09:05:54;;;;;;;27.90;16.63;;;18.00;99.90;;;;;;5032210;28;20029;-74
2022/05/06 09:08:21;;;;;;;27.08;15.77;;;18.20;99.90;;;;;;5032574;28;20028;-74
2022/05/06 09:11:07;;;;;;;27.08;15.20;;;18.20;99.90;;;;;;5034653;28;20108;-77
2022/05/06 09:13:36;;;;;;;32.00;18.67;;;18.40;99.90;;;;;;5038282;28;20442;-76
2022/05/06 09:16:40;;;;;;;32.70;17.13;;;18.30;99.90;;;;;;5036646;28;20026;-73
2022/05/06 09:19:16;;;;;;;29.20;16.92;;;18.30;99.90;;;;;;4995333;28;20040;-74
2022/05/06 09:22:06;;;;;;;27.50;16.45;;;18.40;99.90;;;;;;5036625;28;20029;-76
2022/05/06 09:24:37;;;;;;;33.08;16.42;;;18.50;99.90;;;;;;5025043;28;20091;-74
2022/05/06 09:27:08;;;;;;;27.13;16.42;;;18.60;99.90;;;;;;5039831;28;20115;-79
2022/05/06 09:29:46;;;;;;;34.55;15.85;;;18.80;99.90;;;;;;5038275;28;20028;-77
2022/05/06 09:32:12;;;;;;;37.15;17.85;;;19.00;99.90;;;;;;5038801;28;20030;-77
2022/05/06 09:34:39;;;;;;;33.10;17.50;;;19.10;99.90;;;;;;5037616;28;20466;-75
2022/05/06 09:37:05;;;;;;;26.75;17.27;;;19.10;99.90;;;;;;5036641;28;20062;-79
2022/05/06 09:39:31;;;;;;;35.30;19.63;;;19.30;99.90;;;;;;5037353;28;20044;-78
2022/05/06 09:42:04;;;;;;;30.98;17.25;;;19.40;99.90;;;;;;5039978;28;20036;-79
2022/05/06 09:44:31;;;;;;;30.40;15.65;;;19.60;99.90;;;;;;5037804;28;20592;-76
2022/05/06 09:47:15;;;;;;;28.98;16.67;;;19.80;99.90;;;;;;5040955;28;20026;-74
2022/05/06 09:49:42;;;;;;;36.13;17.75;;;19.90;99.90;;;;;;5037718;28;20654;-75
2022/05/06 09:52:09;;;;;;;30.48;16.80;;;20.00;99.90;;;;;;5035767;28;20037;-74
2022/05/06 09:54:35;;;;;;;28.80;15.48;;;20.10;99.90;;;;;;5051045;22;20126;-78
2022/05/06 09:57:06;;;;;;;33.90;18.92;;;20.30;99.90;;;;;;5041795;28;20082;-80
2022/05/06 09:59:32;;;;;;;34.63;17.70;;;20.40;99.90;;;;;;5042383;28;20055;-79
2022/05/06 10:01:57;;;;;;;36.97;16.95;;;20.50;99.90;;;;;;5046422;28;20033;-77
2022/05/06 10:04:23;;;;;;;34.53;15.95;;;20.60;99.90;;;;;;5046866;28;20037;-80
2022/05/06 10:06:49;;;;;;;35.75;16.38;;;20.60;99.90;;;;;;5046970;28;20025;-82
2022/05/06 10:09:19;;;;;;;30.60;18.05;;;20.70;99.90;;;;;;5046258;28;20026;-84
2022/05/06 10:11:45;;;;;;;41.90;19.65;;;20.50;99.90;;;;;;5045661;28;20045;-82
2022/05/06 10:14:14;;;;;;;26.73;15.55;;;20.60;99.90;;;;;;5047609;28;20025;-77
2022/05/06 10:16:41;;;;;;;33.80;18.08;;;20.50;99.90;;;;;;5042985;28;20036;-81
2022/05/06 10:19:28;;;;;;;38.83;16.23;;;20.40;99.90;;;;;;5042381;28;20544;-79
2022/05/06 10:21:57;;;;;;;32.00;16.15;;;20.40;99.90;;;;;;5041963;28;20029;-78
2022/05/06 10:24:22;;;;;;;27.25;15.77;;;20.60;99.90;;;;;;5042593;28;20056;-78
2022/05/06 10:26:50;;;;;;;32.65;17.85;;;20.60;99.90;;;;;;5046522;28;20034;-77
2022/05/06 10:32:27;;;;;;;26.38;15.25;;;21.00;99.90;;;;;;5042116;28;20397;-78
2022/05/06 10:34:58;;;;;;;28.30;15.38;;;21.20;99.90;;;;;;5045250;28;20029;-78
2022/05/06 10:37:34;;;;;;;29.38;14.68;;;21.40;99.90;;;;;;5045103;28;20025;-77
2022/05/06 10:40:19;;;;;;;27.40;15.18;;;21.60;99.90;;;;;;5044011;28;20033;-80
2022/05/06 10:42:45;;;;;;;33.60;18.50;;;21.80;99.90;;;;;;5043103;28;20033;-78
2022/05/06 10:45:30;;;;;;;30.17;16.52;;;21.90;99.90;;;;;;5044330;28;20032;-77
2022/05/06 10:47:56;;;;;;;26.58;14.55;;;22.10;99.90;;;;;;5040483;28;20045;-78
2022/05/06 10:50:25;;;;;;;25.38;14.82;;;22.20;99.90;;;;;;5040037;28;20162;-79
2022/05/06 10:52:51;;;;;;;24.63;14.00;;;22.30;99.90;;;;;;5042676;28;20025;-78
2022/05/06 10:55:18;;;;;;;31.30;14.88;;;22.40;99.90;;;;;;5041689;28;20072;-77
2022/05/06 10:57:48;;;;;;;24.33;14.77;;;22.40;99.90;;;;;;5040715;28;20052;-81
2022/05/06 11:00:14;;;;;;;30.45;14.77;;;22.50;99.90;;;;;;5043050;28;20128;-80
2022/05/06 11:02:40;;;;;;;30.40;14.73;;;22.60;99.90;;;;;;5040879;28;20044;-80
2022/05/06 11:05:12;;;;;;;29.02;16.02;;;22.80;99.70;;;;;;5041894;28;20022;-79
2022/05/06 11:07:39;;;;;;;23.08;13.52;;;23.00;99.40;;;;;;5041582;28;20025;-77
2022/05/06 11:10:28;;;;;;;20.17;10.95;;;23.20;98.80;;;;;;5042463;28;20421;-78
2022/05/06 11:12:57;;;;;;;28.58;13.77;;;23.40;98.20;;;;;;5046178;28;20021;-77
2022/05/06 11:15:28;;;;;;;22.23;12.35;;;23.70;96.60;;;;;;5045185;28;20049;-80
2022/05/06 11:18:04;;;;;;;51.88;14.80;;;23.50;96.60;;;;;;5039443;28;20021;-80
2022/05/06 11:20:32;;;;;;;20.33;12.45;;;23.30;96.30;;;;;;5041483;28;20030;-78
2022/05/06 11:23:04;;;;;;;25.88;14.27;;;23.10;96.60;;;;;;5042716;28;20116;-79
2022/05/06 11:25:35;;;;;;;21.08;12.60;;;23.10;96.90;;;;;;5048136;28;20026;-79
2022/05/06 11:28:03;;;;;;;21.10;12.57;;;23.00;97.00;;;;;;5049063;28;20032;-78
2022/05/06 11:30:30;;;;;;;21.25;11.90;;;23.20;97.00;;;;;;5048431;28;20584;-78
2022/05/06 11:33:02;;;;;;;22.40;12.38;;;23.50;96.00;;;;;;5047014;28;20034;-77
2022/05/06 11:35:30;;;;;;;45.33;18.67;;;23.90;95.10;;;;;;5046550;28;20037;-78
2022/05/06 11:37:56;;;;;;;22.10;9.85;;;23.90;94.50;;;;;;5049065;28;20087;-77
2022/05/06 11:42:51;;;;;;;16.88;8.50;;;24.10;92.40;;;;;;5047991;28;20065;-76
2022/05/06 11:48:10;;;;;;;18.63;9.35;;;24.30;91.90;;;;;;5046333;28;20024;-76
2022/05/06 11:50:38;;;;;;;17.50;8.73;;;24.10;91.70;;;;;;5046229;28;20022;-78
2022/05/06 11:53:13;;;;;;;16.15;8.00;;;24.10;92.00;;;;;;5045406;28;20047;-77
2022/05/06 11:55:41;;;;;;;14.40;7.90;;;24.30;91.60;;;;;;5046277;28;20058;-76
2022/05/06 11:58:11;;;;;;;17.92;8.82;;;24.50;90.20;;;;;;5047242;28;20075;-76
2022/05/06 12:00:37;;;;;;;20.73;9.23;;;24.50;89.50;;;;;;5046029;28;20143;-79
2022/05/06 12:03:05;;;;;;;15.88;9.30;;;24.10;90.50;;;;;;5045644;28;20041;-80
2022/05/06 12:05:32;;;;;;;18.17;8.45;;;23.90;90.50;;;;;;5046559;28;20021;-79
2022/05/06 12:07:58;;;;;;;16.80;9.10;;;23.50;91.20;;;;;;5048205;28;20394;-76
2022/05/06 12:10:25;;;;;;;20.80;8.77;;;23.50;91.60;;;;;;5045321;28;20041;-77
2022/05/06 12:12:58;;;;;;;25.38;10.05;;;23.60;91.80;;;;;;5047059;28;20069;-77
2022/05/06 12:15:41;;;;;;;18.67;10.43;;;23.80;91.60;;;;;;5045566;28;20057;-78
2022/05/06 12:18:24;;;;;;;22.60;9.30;;;23.80;91.50;;;;;;5045346;28;20040;-78
2022/05/06 12:20:49;;;;;;;16.10;8.68;;;24.00;90.20;;;;;;5047546;28;20109;-77
2022/05/06 12:23:15;;;;;;;18.92;8.63;;;24.20;90.10;;;;;;5046433;28;20029;-75
2022/05/06 12:25:41;;;;;;;21.98;10.63;;;24.40;90.00;;;;;;5044656;28;20053;-77
2022/05/06 12:28:17;;;;;;;18.38;9.70;;;24.70;90.10;;;;;;5047828;28;20022;-76
2022/05/06 12:30:44;;;;;;;18.63;8.93;;;25.10;88.00;;;;;;5047038;28;20033;-76
2022/05/06 12:33:15;;;;;;;18.63;9.02;;;25.00;87.00;;;;;;5043369;28;20041;-79
2022/05/06 12:35:56;;;;;;;18.67;10.30;;;25.20;86.00;;;;;;5045455;28;20022;-76
2022/05/06 12:38:23;;;;;;;15.57;9.00;;;25.10;85.40;;;;;;5046347;28;20014;-80
2022/05/06 12:40:50;;;;;;;20.10;9.40;;;25.20;85.00;;;;;;5045616;28;20029;-79
2022/05/06 12:43:16;;;;;;;14.07;8.30;;;25.10;84.30;;;;;;5045559;28;20390;-78
2022/05/06 12:45:56;;;;;;;16.35;9.15;;;25.00;84.80;;;;;;5048654;28;20035;-81
2022/05/06 12:51:07;;;;;;;16.60;7.10;;;25.30;84.60;;;;;;5060837;28;20024;-77
2022/05/06 12:53:33;;;;;;;16.38;7.78;;;25.50;83.90;;;;;;5060501;28;20025;-76
2022/05/06 12:56:03;;;;;;;18.85;7.57;;;25.60;81.90;;;;;;5056678;28;20029;-77
2022/05/06 12:58:29;;;;;;;12.05;6.85;;;25.80;82.60;;;;;;5052971;28;20025;-79
2022/05/06 13:00:59;;;;;;;16.27;7.05;;;26.20;81.80;;;;;;5050915;28;20049;-78
2022/05/06 13:03:26;;;;;;;17.95;8.80;;;26.60;81.20;;;;;;5052908;28;20033;-78
2022/05/06 13:05:53;;;;;;;11.70;7.35;;;26.80;79.00;;;;;;5052038;28;20021;-78
2022/05/06 13:08:20;;;;;;;13.20;7.50;;;26.80;78.50;;;;;;5053047;28;20029;-77
2022/05/06 13:10:45;;;;;;;15.27;7.88;;;26.80;77.70;;;;;;5052941;28;20048;-76
2022/05/06 13:13:11;;;;;;;15.40;8.20;;;26.70;77.00;;;;;;5053354;28;20017;-77
2022/05/06 13:15:37;;;;;;;17.40;9.55;;;26.50;76.10;;;;;;5052115;28;20402;-77
2022/05/06 13:18:03;;;;;;;13.88;7.18;;;26.30;77.40;;;;;;5052245;28;20029;-79